createdAt,value
2023-05-19T00:00:01.102Z,10.8
2023-05-19T00:01:01.082Z,10.8
2023-05-19T00:02:01.557Z,10.8
2023-05-19T00:03:02.145Z,10.8
2023-05-19T00:04:01.593Z,10.8
2023-05-19T00:05:01.927Z,10.8
2023-05-19T00:06:03.656Z,10.8
2023-05-19T00:07:00.728Z,10.8
2023-05-19T00:08:00.447Z,10.8
2023-05-19T00:09:00.147Z,10.8
2023-05-19T00:10:00.152Z,10.8
2023-05-19T00:11:05.564Z,10.8
2023-05-19T00:12:01.454Z,10.7
2023-05-19T00:13:02.268Z,10.7
2023-05-19T00:14:01.091Z,10.7
2023-05-19T00:15:01.082Z,10.6
2023-05-19T00:16:09.542Z,10.6
2023-05-19T00:17:01.511Z,10.6
2023-05-19T00:18:01.184Z,10.6
2023-05-19T00:19:01.160Z,10.5
2023-05-19T00:20:01.979Z,10.5
2023-05-19T00:21:12.637Z,10.5
2023-05-19T00:22:01.034Z,10.6
2023-05-19T00:23:01.028Z,10.6
2023-05-19T00:24:01.049Z,10.6
2023-05-19T00:25:01.129Z,10.6
2023-05-19T00:26:15.264Z,10.6
2023-05-19T00:27:01.751Z,10.6
2023-05-19T00:28:01.065Z,10.6
2023-05-19T00:29:01.441Z,10.7
2023-05-19T00:30:01.477Z,10.7
2023-05-19T00:31:17.242Z,10.7
2023-05-19T00:32:01.995Z,10.7
2023-05-19T00:33:02.648Z,10.8
2023-05-19T00:34:01.089Z,10.7
2023-05-19T00:35:01.115Z,10.8
2023-05-19T00:36:01.113Z,10.8
2023-05-19T00:37:01.560Z,10.7
2023-05-19T00:38:01.736Z,10.6
2023-05-19T00:39:01.232Z,10.6
2023-05-19T00:40:01.900Z,10.6
2023-05-19T00:41:02.305Z,10.6
2023-05-19T00:42:01.044Z,10.5
2023-05-19T00:43:01.059Z,10.5
2023-05-19T00:44:01.487Z,10.5
2023-05-19T00:45:01.052Z,10.5
2023-05-19T00:46:01.065Z,10.5
2023-05-19T00:47:01.206Z,10.5
2023-05-19T00:48:01.154Z,10.6
2023-05-19T00:49:01.101Z,10.6
2023-05-19T00:50:01.509Z,10.6
2023-05-19T00:51:01.213Z,10.6
2023-05-19T00:52:01.115Z,10.6
2023-05-19T00:53:01.120Z,10.6
2023-05-19T00:54:01.132Z,10.6
2023-05-19T00:55:01.033Z,10.6
2023-05-19T00:56:01.059Z,10.6
2023-05-19T00:57:01.059Z,10.6
2023-05-19T00:58:01.059Z,10.6
2023-05-19T00:59:01.062Z,10.5
2023-05-19T01:00:01.069Z,10.5
2023-05-19T01:01:01.297Z,10.5
2023-05-19T01:02:01.616Z,10.5
2023-05-19T01:03:02.421Z,10.5
2023-05-19T01:04:01.953Z,10.5
2023-05-19T01:05:01.102Z,10.5
2023-05-19T01:06:01.099Z,10.5
2023-05-19T01:07:01.122Z,10.4
2023-05-19T01:08:01.139Z,10.4
2023-05-19T01:09:01.153Z,10.5
2023-05-19T01:10:01.436Z,10.5
2023-05-19T01:11:01.169Z,10.5
2023-05-19T01:12:01.047Z,10.5
2023-05-19T01:13:01.044Z,10.5
2023-05-19T01:14:01.469Z,10.5
2023-05-19T01:15:01.059Z,10.5
2023-05-19T01:16:00.921Z,10.6
2023-05-19T01:17:01.220Z,10.6
2023-05-19T01:18:01.309Z,10.6
2023-05-19T01:19:02.256Z,10.6
2023-05-19T01:20:01.200Z,10.5
2023-05-19T01:21:02.222Z,10.5
2023-05-19T01:22:01.196Z,10.5
2023-05-19T01:23:01.200Z,10.4
2023-05-19T01:24:01.109Z,10.4
2023-05-19T01:25:00.153Z,10.4
2023-05-19T01:26:00.102Z,10.3
2023-05-19T01:26:59.795Z,10.3
2023-05-19T01:28:02.097Z,10.3
2023-05-19T01:29:02.265Z,10.3
2023-05-19T01:30:03.016Z,10.3
2023-05-19T01:31:01.195Z,10.3
2023-05-19T01:32:01.168Z,10.3
2023-05-19T01:33:04.314Z,10.2
2023-05-19T01:34:01.102Z,10.3
2023-05-19T01:35:01.082Z,10.3
2023-05-19T01:36:01.094Z,10.3
2023-05-19T01:37:01.474Z,10.3
2023-05-19T01:38:01.096Z,10.3
2023-05-19T01:39:01.111Z,10.4
2023-05-19T01:40:01.443Z,10.4
2023-05-19T01:41:01.293Z,10.4
2023-05-19T01:42:01.156Z,10.4
2023-05-19T01:43:01.134Z,10.5
2023-05-19T01:44:01.571Z,10.5
2023-05-19T01:45:01.269Z,10.5
2023-05-19T01:46:01.315Z,10.5
2023-05-19T01:47:01.783Z,10.5
2023-05-19T01:48:02.026Z,10.5
2023-05-19T01:49:01.743Z,10.5
2023-05-19T01:50:01.083Z,10.5
2023-05-19T01:51:01.113Z,10.5
2023-05-19T01:52:04.616Z,10.5
2023-05-19T01:53:01.096Z,10.5
2023-05-19T01:54:01.102Z,10.5
2023-05-19T01:55:01.223Z,10.5
2023-05-19T01:56:01.517Z,10.5
2023-05-19T01:57:06.777Z,10.5
2023-05-19T01:58:01.026Z,10.5
2023-05-19T01:59:01.047Z,10.5
2023-05-19T02:00:01.056Z,10.4
2023-05-19T02:01:01.115Z,10.3
2023-05-19T02:02:09.383Z,10.3
2023-05-19T02:03:02.665Z,10.3
2023-05-19T02:04:01.220Z,10.3
2023-05-19T02:05:02.068Z,10.2
2023-05-19T02:06:01.394Z,10.1
2023-05-19T02:07:13.040Z,10.1
2023-05-19T02:08:02.758Z,10.1
2023-05-19T02:09:00.734Z,10
2023-05-19T02:10:00.401Z,9.8
2023-05-19T02:10:59.987Z,9.7
2023-05-19T02:12:14.299Z,9.6
2023-05-19T02:13:02.046Z,9.6
2023-05-19T02:14:01.074Z,9.7
2023-05-19T02:15:01.377Z,9.7
2023-05-19T02:16:01.107Z,9.7
2023-05-19T02:17:01.051Z,9.6
2023-05-19T02:18:01.105Z,9.6
2023-05-19T02:19:01.158Z,9.6
2023-05-19T02:20:00.742Z,9.6
2023-05-19T02:21:00.453Z,9.6
2023-05-19T02:22:00.059Z,9.6
2023-05-19T02:22:59.762Z,9.6
2023-05-19T02:24:01.313Z,9.6
2023-05-19T02:25:03.004Z,9.6
2023-05-19T02:26:01.118Z,9.6
2023-05-19T02:27:01.177Z,9.5
2023-05-19T02:28:00.842Z,9.5
2023-05-19T02:29:00.650Z,9.4
2023-05-19T02:30:00.353Z,9.4
2023-05-19T02:31:00.002Z,9.4
2023-05-19T02:31:59.650Z,9.3
2023-05-19T02:33:01.924Z,9.3
2023-05-19T02:34:01.101Z,9.4
2023-05-19T02:35:01.012Z,9.3
2023-05-19T02:36:01.053Z,9.3
2023-05-19T02:37:01.087Z,9.3
2023-05-19T02:38:01.480Z,9.3
2023-05-19T02:39:01.096Z,9.3
2023-05-19T02:40:01.171Z,9.3
2023-05-19T02:41:01.135Z,9.3
2023-05-19T02:42:01.126Z,9.3
2023-05-19T02:43:01.109Z,9.3
2023-05-19T02:44:00.990Z,9.2
2023-05-19T02:45:01.503Z,9.2
2023-05-19T02:46:02.101Z,9.2
2023-05-19T02:47:01.040Z,9.2
2023-05-19T02:48:00.795Z,9.1
2023-05-19T02:49:00.631Z,9.1
2023-05-19T02:50:00.256Z,9.1
2023-05-19T02:50:59.862Z,9.1
2023-05-19T02:52:01.753Z,9.1
2023-05-19T02:53:01.511Z,9
2023-05-19T02:54:02.897Z,9
2023-05-19T02:55:01.081Z,9
2023-05-19T02:56:01.115Z,9
2023-05-19T02:57:01.018Z,9
2023-05-19T02:58:01.092Z,9
2023-05-19T02:59:01.103Z,9
2023-05-19T03:00:01.142Z,9
2023-05-19T03:01:01.096Z,9
2023-05-19T03:02:01.220Z,9
2023-05-19T03:03:02.465Z,9
2023-05-19T03:04:02.410Z,9
2023-05-19T03:05:01.854Z,9.1
2023-05-19T03:06:01.042Z,9.1
2023-05-19T03:07:01.055Z,9.1
2023-05-19T03:08:00.762Z,9.1
2023-05-19T03:09:01.185Z,9.1
2023-05-19T03:10:01.091Z,9.1
2023-05-19T03:11:01.110Z,9.1
2023-05-19T03:12:01.420Z,9.1
2023-05-19T03:13:01.092Z,9.1
2023-05-19T03:14:01.547Z,9.1
2023-05-19T03:15:00.879Z,9.1
2023-05-19T03:16:01.166Z,9
2023-05-19T03:17:01.178Z,9
2023-05-19T03:18:01.096Z,9
2023-05-19T03:19:01.060Z,9.1
2023-05-19T03:20:01.110Z,9.1
2023-05-19T03:21:01.427Z,9.1
2023-05-19T03:22:01.166Z,9.1
2023-05-19T03:23:01.049Z,9.1
2023-05-19T03:24:01.068Z,9.2
2023-05-19T03:25:01.018Z,9.2
2023-05-19T03:26:01.064Z,9.3
2023-05-19T03:27:01.089Z,9.3
2023-05-19T03:28:00.800Z,9.3
2023-05-19T03:29:00.381Z,9.4
2023-05-19T03:30:00.106Z,9.4
2023-05-19T03:30:59.933Z,9.4
2023-05-19T03:32:00.076Z,9.4
2023-05-19T03:33:01.193Z,9.4
2023-05-19T03:34:02.096Z,9.4
2023-05-19T03:35:01.432Z,9.4
2023-05-19T03:36:01.151Z,9.5
2023-05-19T03:37:01.922Z,9.5
2023-05-19T03:38:04.639Z,9.4
2023-05-19T03:39:01.068Z,9.4
2023-05-19T03:40:01.088Z,9.5
2023-05-19T03:41:01.083Z,9.5
2023-05-19T03:42:01.136Z,9.5
2023-05-19T03:43:07.007Z,9.5
2023-05-19T03:44:01.104Z,9.6
2023-05-19T03:45:01.107Z,9.6
2023-05-19T03:46:01.150Z,9.6
2023-05-19T03:47:01.125Z,9.6
2023-05-19T03:48:10.481Z,9.6
2023-05-19T03:49:01.501Z,9.6
2023-05-19T03:50:01.186Z,9.6
2023-05-19T03:51:01.068Z,9.6
2023-05-19T03:52:01.053Z,9.6
2023-05-19T03:53:14.303Z,9.6
2023-05-19T03:54:02.310Z,9.5
2023-05-19T03:55:01.910Z,9.5
2023-05-19T03:56:01.981Z,9.5
2023-05-19T03:57:01.451Z,9.5
2023-05-19T03:58:17.158Z,9.5
2023-05-19T03:59:02.200Z,9.5
2023-05-19T04:00:01.052Z,9.5
2023-05-19T04:01:01.518Z,9.5
2023-05-19T04:02:01.172Z,9.5
2023-05-19T04:03:01.264Z,9.6
2023-05-19T04:04:01.177Z,9.6
2023-05-19T04:05:01.389Z,9.6
2023-05-19T04:06:01.447Z,9.6
2023-05-19T04:07:01.430Z,9.6
2023-05-19T04:08:01.446Z,9.6
2023-05-19T04:09:02.969Z,9.6
2023-05-19T04:10:01.085Z,9.6
2023-05-19T04:11:01.073Z,9.6
2023-05-19T04:12:01.039Z,9.6
2023-05-19T04:13:01.093Z,9.6
2023-05-19T04:14:01.792Z,9.6
2023-05-19T04:15:01.049Z,9.6
2023-05-19T04:16:01.126Z,9.6
2023-05-19T04:17:01.101Z,9.6
2023-05-19T04:18:01.145Z,9.6
2023-05-19T04:19:01.204Z,9.6
2023-05-19T04:20:01.753Z,9.7
2023-05-19T04:21:01.163Z,9.7
2023-05-19T04:22:01.038Z,9.7
2023-05-19T04:23:01.040Z,9.7
2023-05-19T04:24:01.240Z,9.7
2023-05-19T04:25:00.779Z,9.7
2023-05-19T04:26:00.449Z,9.7
2023-05-19T04:27:00.030Z,9.7
2023-05-19T04:27:59.623Z,9.7
2023-05-19T04:29:01.645Z,9.7
2023-05-19T04:30:01.967Z,9.7
2023-05-19T04:31:01.445Z,9.7
2023-05-19T04:32:01.210Z,9.7
2023-05-19T04:33:00.941Z,9.7
2023-05-19T04:34:00.713Z,9.8
2023-05-19T04:35:00.428Z,9.8
2023-05-19T04:36:00.109Z,9.8
2023-05-19T04:37:00.079Z,9.8
2023-05-19T04:37:59.809Z,9.8
2023-05-19T04:39:01.488Z,9.8
2023-05-19T04:40:02.072Z,9.9
2023-05-19T04:41:01.115Z,9.8
2023-05-19T04:42:01.059Z,9.8
2023-05-19T04:43:01.090Z,9.8
2023-05-19T04:44:01.098Z,9.8
2023-05-19T04:45:01.134Z,9.8
2023-05-19T04:46:01.170Z,9.8
2023-05-19T04:47:01.243Z,9.8
2023-05-19T04:48:01.237Z,9.8
2023-05-19T04:49:00.985Z,9.8
2023-05-19T04:50:00.851Z,9.8
2023-05-19T04:51:01.127Z,9.8
2023-05-19T04:52:01.446Z,9.8
2023-05-19T04:53:01.164Z,9.9
2023-05-19T04:54:01.050Z,9.9
2023-05-19T04:55:01.439Z,10
2023-05-19T04:56:01.059Z,9.9
2023-05-19T04:57:01.076Z,10
2023-05-19T04:58:01.068Z,10
2023-05-19T04:59:01.058Z,10
2023-05-19T05:00:01.725Z,10
2023-05-19T05:01:01.096Z,10.1
2023-05-19T05:02:01.127Z,10.1
2023-05-19T05:03:01.386Z,10
2023-05-19T05:04:02.245Z,10
2023-05-19T05:05:02.093Z,10
2023-05-19T05:06:01.122Z,10
2023-05-19T05:07:03.890Z,10.1
2023-05-19T05:08:01.766Z,10.1
2023-05-19T05:09:00.619Z,10.1
2023-05-19T05:10:00.220Z,10.1
2023-05-19T05:10:59.810Z,10.2
2023-05-19T05:12:01.843Z,10.3
2023-05-19T05:13:01.796Z,10.3
2023-05-19T05:14:04.122Z,10.2
2023-05-19T05:15:02.093Z,10.3
2023-05-19T05:16:01.148Z,10.3
2023-05-19T05:17:01.068Z,10.3
2023-05-19T05:18:01.169Z,10.2
2023-05-19T05:19:06.356Z,10.2
2023-05-19T05:20:01.097Z,10.3
2023-05-19T05:21:01.104Z,10.3
2023-05-19T05:22:01.126Z,10.3
2023-05-19T05:23:01.019Z,10.3
2023-05-19T05:24:09.014Z,10.3
2023-05-19T05:25:01.122Z,10.3
2023-05-19T05:26:01.030Z,10.3
2023-05-19T05:27:01.034Z,10.4
2023-05-19T05:28:01.188Z,10.5
2023-05-19T05:29:10.290Z,10.5
2023-05-19T05:30:01.359Z,10.5
2023-05-19T05:31:01.053Z,10.4
2023-05-19T05:32:01.139Z,10.3
2023-05-19T05:33:01.488Z,10.3
2023-05-19T05:34:14.572Z,10.3
2023-05-19T05:35:01.118Z,10.3
2023-05-19T05:36:02.200Z,10.3
2023-05-19T05:37:01.417Z,10.3
2023-05-19T05:38:01.854Z,10.3
2023-05-19T05:39:01.670Z,10.4
2023-05-19T05:40:00.548Z,10.4
2023-05-19T05:41:00.188Z,10.4
2023-05-19T05:41:59.783Z,10.5
2023-05-19T05:43:01.469Z,10.5
2023-05-19T05:44:01.398Z,10.6
2023-05-19T05:45:02.816Z,10.6
2023-05-19T05:46:01.543Z,10.6
2023-05-19T05:47:01.056Z,10.6
2023-05-19T05:48:01.232Z,10.6
2023-05-19T05:49:00.693Z,10.6
2023-05-19T05:50:00.481Z,10.6
2023-05-19T05:51:00.731Z,10.6
2023-05-19T05:53:01.651Z,10.7
2023-05-19T05:54:01.108Z,10.8
2023-05-19T05:55:01.042Z,10.8
2023-05-19T05:56:01.128Z,10.9
2023-05-19T05:57:01.122Z,11
2023-05-19T05:58:01.337Z,11
2023-05-19T05:59:01.221Z,11.1
2023-05-19T06:00:02.241Z,11.1
2023-05-19T06:01:01.078Z,11.2
2023-05-19T06:02:01.102Z,11.2
2023-05-19T06:03:01.876Z,11.2
2023-05-19T06:04:01.756Z,11.2
2023-05-19T06:05:01.358Z,11.1
2023-05-19T06:06:02.579Z,11.1
2023-05-19T06:07:01.455Z,11.2
2023-05-19T06:08:01.567Z,11.3
2023-05-19T06:09:01.300Z,11.4
2023-05-19T06:10:01.122Z,11.5
2023-05-19T06:11:01.543Z,11.6
2023-05-19T06:12:01.159Z,11.6
2023-05-19T06:13:01.245Z,11.6
2023-05-19T06:14:01.032Z,11.7
2023-05-19T06:15:01.046Z,11.8
2023-05-19T06:16:02.281Z,11.9
2023-05-19T06:17:01.484Z,12
2023-05-19T06:18:02.181Z,12
2023-05-19T06:19:01.672Z,11.9
2023-05-19T06:20:01.064Z,11.9
2023-05-19T06:21:01.078Z,12
2023-05-19T06:22:01.162Z,12.1
2023-05-19T06:23:01.087Z,12.1
2023-05-19T06:24:03.035Z,12
2023-05-19T06:25:02.032Z,12
2023-05-19T06:26:02.433Z,12
2023-05-19T06:27:01.801Z,12.1
2023-05-19T06:28:01.141Z,12.1
2023-05-19T06:29:00.810Z,12.1
2023-05-19T06:30:00.931Z,12.1
2023-05-19T06:31:01.208Z,12.2
2023-05-19T06:32:01.292Z,12.2
2023-05-19T06:33:01.239Z,12.3
2023-05-19T06:34:01.068Z,12.4
2023-05-19T06:35:01.176Z,12.4
2023-05-19T06:36:01.094Z,12.5
2023-05-19T06:37:01.070Z,12.5
2023-05-19T06:38:01.086Z,12.5
2023-05-19T06:39:02.709Z,12.5
2023-05-19T06:40:01.304Z,12.5
2023-05-19T06:41:01.116Z,12.5
2023-05-19T06:42:01.114Z,12.6
2023-05-19T06:43:01.134Z,12.6
2023-05-19T06:44:01.314Z,12.6
2023-05-19T06:45:01.035Z,12.7
2023-05-19T06:46:01.127Z,12.8
2023-05-19T06:47:01.668Z,12.8
2023-05-19T06:48:01.508Z,12.9
2023-05-19T06:49:01.167Z,12.9
2023-05-19T06:50:01.924Z,13
2023-05-19T06:51:01.249Z,13
2023-05-19T06:52:01.062Z,13
2023-05-19T06:53:01.068Z,13.1
2023-05-19T06:54:01.202Z,13.1
2023-05-19T06:55:04.844Z,13.2
2023-05-19T06:56:02.083Z,13.2
2023-05-19T06:57:00.789Z,13.3
2023-05-19T06:58:00.493Z,13.3
2023-05-19T06:59:00.239Z,13.3
2023-05-19T07:00:06.324Z,13.4
2023-05-19T07:01:01.452Z,13.4
2023-05-19T07:02:01.107Z,13.5
2023-05-19T07:03:01.132Z,13.6
2023-05-19T07:04:01.193Z,13.7
2023-05-19T07:05:09.611Z,13.9
2023-05-19T07:06:01.087Z,14
2023-05-19T07:07:01.121Z,14
2023-05-19T07:08:01.118Z,14.1
2023-05-19T07:09:00.821Z,14.2
2023-05-19T07:10:11.479Z,14.3
2023-05-19T07:11:02.185Z,14.3
2023-05-19T07:12:01.930Z,14.3
2023-05-19T07:13:01.391Z,14.4
2023-05-19T07:14:01.116Z,14.4
2023-05-19T07:15:14.181Z,14.3
2023-05-19T07:16:01.168Z,14.3
2023-05-19T07:17:01.768Z,14.3
2023-05-19T07:18:01.322Z,14.2
2023-05-19T07:19:02.201Z,14.1
2023-05-19T07:20:02.061Z,14.2
2023-05-19T07:21:01.958Z,14.2
2023-05-19T07:22:01.136Z,14.2
2023-05-19T07:23:01.550Z,14.3
2023-05-19T07:24:01.093Z,14.3
2023-05-19T07:25:01.129Z,14.3
2023-05-19T07:26:01.361Z,14.3
2023-05-19T07:27:02.241Z,14.4
2023-05-19T07:28:00.990Z,14.5
2023-05-19T07:29:00.808Z,14.5
2023-05-19T07:30:00.864Z,14.5
2023-05-19T07:31:01.525Z,14.5
2023-05-19T07:32:01.266Z,14.5
2023-05-19T07:33:01.162Z,14.5
2023-05-19T07:34:01.095Z,14.5
2023-05-19T07:35:01.036Z,14.5
2023-05-19T07:36:01.131Z,14.5
2023-05-19T07:37:01.049Z,14.6
2023-05-19T07:38:01.163Z,14.6
2023-05-19T07:39:01.287Z,14.7
2023-05-19T07:40:01.495Z,14.8
2023-05-19T07:41:01.861Z,14.8
2023-05-19T07:42:01.203Z,14.8
2023-05-19T07:43:01.032Z,14.8
2023-05-19T07:44:01.010Z,14.9
2023-05-19T07:45:02.430Z,15
2023-05-19T07:46:02.396Z,15
2023-05-19T07:47:01.120Z,15.1
2023-05-19T07:48:01.179Z,15.1
2023-05-19T07:49:01.135Z,15.1
2023-05-19T07:50:01.740Z,15.1
2023-05-19T07:51:01.048Z,15.1
2023-05-19T07:52:01.509Z,15.1
2023-05-19T07:53:01.051Z,15.1
2023-05-19T07:54:01.071Z,15.1
2023-05-19T07:55:01.066Z,15.2
2023-05-19T07:56:01.630Z,15.2
2023-05-19T07:57:01.458Z,15.3
2023-05-19T07:58:01.025Z,15.4
2023-05-19T07:59:01.136Z,15.4
2023-05-19T08:00:01.100Z,15.3
2023-05-19T08:01:01.093Z,15.2
2023-05-19T08:02:01.123Z,15.2
2023-05-19T08:03:01.175Z,15.2
2023-05-19T08:04:01.233Z,15.3
2023-05-19T08:05:01.947Z,15.3
2023-05-19T08:06:01.261Z,15.3
2023-05-19T08:07:02.261Z,15.4
2023-05-19T08:08:01.297Z,15.5
2023-05-19T08:09:01.153Z,15.5
2023-05-19T08:10:00.760Z,15.6
2023-05-19T08:11:00.340Z,15.5
2023-05-19T08:11:59.936Z,15.5
2023-05-19T08:12:59.535Z,15.4
2023-05-19T08:14:01.112Z,15.3
2023-05-19T08:15:01.753Z,15.3
2023-05-19T08:16:01.345Z,15.3
2023-05-19T08:17:02.228Z,15.3
2023-05-19T08:18:01.267Z,15.3
2023-05-19T08:19:01.233Z,15.2
2023-05-19T08:20:05.790Z,15.1
2023-05-19T08:21:05.013Z,15.1
2023-05-19T08:22:01.751Z,15.1
2023-05-19T08:23:01.063Z,15.2
2023-05-19T08:24:01.050Z,15.1
2023-05-19T08:25:01.266Z,15.2
2023-05-19T08:26:01.093Z,15.1
2023-05-19T08:27:01.089Z,15.2
2023-05-19T08:28:01.482Z,15.3
2023-05-19T08:29:01.225Z,15.3
2023-05-19T08:30:01.835Z,15.4
2023-05-19T08:31:01.329Z,15.5
2023-05-19T08:32:01.257Z,15.5
2023-05-19T08:33:01.166Z,15.6
2023-05-19T08:34:01.327Z,15.6
2023-05-19T08:35:01.026Z,15.6
2023-05-19T08:36:01.143Z,15.6
2023-05-19T08:37:01.183Z,15.6
2023-05-19T08:38:01.419Z,15.6
2023-05-19T08:39:01.162Z,15.6
2023-05-19T08:40:01.045Z,15.6
2023-05-19T08:41:01.235Z,15.5
2023-05-19T08:42:01.615Z,15.5
2023-05-19T08:43:01.989Z,15.5
2023-05-19T08:44:01.787Z,15.5
2023-05-19T08:45:01.097Z,15.5
2023-05-19T08:46:00.777Z,15.5
2023-05-19T08:47:00.389Z,15.5
2023-05-19T08:48:00.147Z,15.5
2023-05-19T08:48:59.877Z,15.5
2023-05-19T08:50:00.730Z,15.5
2023-05-19T08:51:04.829Z,15.5
2023-05-19T08:52:01.118Z,15.6
2023-05-19T08:53:05.928Z,15.6
2023-05-19T08:54:00.742Z,15.6
2023-05-19T08:55:00.359Z,15.6
2023-05-19T08:56:05.675Z,15.6
2023-05-19T08:57:05.415Z,15.7
2023-05-19T08:58:01.054Z,15.7
2023-05-19T08:59:01.066Z,15.8
2023-05-19T09:00:01.078Z,15.8
2023-05-19T09:01:10.025Z,15.8
2023-05-19T09:02:01.790Z,15.9
2023-05-19T09:03:17.657Z,15.9
2023-05-19T09:04:01.546Z,15.9
2023-05-19T09:05:01.187Z,16
2023-05-19T09:06:11.465Z,16
2023-05-19T09:07:02.347Z,16
2023-05-19T09:08:02.155Z,16
2023-05-19T09:09:01.040Z,16
2023-05-19T09:10:00.711Z,16
2023-05-19T09:11:14.855Z,16
2023-05-19T09:12:01.213Z,16
2023-05-19T09:13:01.470Z,16.1
2023-05-19T09:14:01.076Z,16.1
2023-05-19T09:15:01.034Z,16.2
2023-05-19T09:16:01.085Z,16.2
2023-05-19T09:17:01.158Z,16.2
2023-05-19T09:18:01.182Z,16.2
2023-05-19T09:19:01.432Z,16.2
2023-05-19T09:20:01.489Z,16.2
2023-05-19T09:21:01.118Z,16.1
2023-05-19T09:22:01.116Z,16.1
2023-05-19T09:23:01.131Z,16.3
2023-05-19T09:24:01.163Z,16.2
2023-05-19T09:25:01.842Z,16.1
2023-05-19T09:26:01.051Z,16.1
2023-05-19T09:27:01.443Z,16.1
2023-05-19T09:28:01.187Z,16.1
2023-05-19T09:29:01.069Z,16.1
2023-05-19T09:30:00.643Z,16.1
2023-05-19T09:31:00.357Z,16.1
2023-05-19T09:32:00.001Z,16.2
2023-05-19T09:33:00.130Z,16.1
2023-05-19T09:34:00.055Z,16.1
2023-05-19T09:34:59.767Z,16.1
2023-05-19T09:36:01.348Z,16.1
2023-05-19T09:37:01.151Z,16.1
2023-05-19T09:38:01.103Z,16.1
2023-05-19T09:39:01.124Z,16.1
2023-05-19T09:40:01.142Z,16.1
2023-05-19T09:41:00.815Z,16
2023-05-19T09:42:00.423Z,16
2023-05-19T09:43:00.001Z,16
2023-05-19T09:43:59.605Z,16
2023-05-19T09:45:02.263Z,15.9
2023-05-19T09:46:01.187Z,16
2023-05-19T09:47:01.130Z,16
2023-05-19T09:48:01.132Z,16
2023-05-19T09:49:01.092Z,16
2023-05-19T09:50:00.790Z,16
2023-05-19T09:51:00.381Z,16
2023-05-19T09:52:00.201Z,16
2023-05-19T09:52:59.855Z,16
2023-05-19T09:54:02.159Z,16
2023-05-19T09:55:01.485Z,16.1
2023-05-19T09:56:01.182Z,16.1
2023-05-19T09:57:01.030Z,16.1
2023-05-19T09:58:01.440Z,16.1
2023-05-19T09:59:01.072Z,16.2
2023-05-19T10:00:01.079Z,16.3
2023-05-19T10:01:01.194Z,16.4
2023-05-19T10:02:01.202Z,16.5
2023-05-19T10:03:01.113Z,16.6
2023-05-19T10:04:01.592Z,16.6
2023-05-19T10:05:01.151Z,16.6
2023-05-19T10:06:01.091Z,16.6
2023-05-19T10:07:01.193Z,16.5
2023-05-19T10:08:01.102Z,16.5
2023-05-19T10:09:01.095Z,16.5
2023-05-19T10:10:00.849Z,16.5
2023-05-19T10:11:01.319Z,16.5
2023-05-19T10:12:02.094Z,16.4
2023-05-19T10:13:01.135Z,16.4
2023-05-19T10:14:02.532Z,16.4
2023-05-19T10:15:01.414Z,16.5
2023-05-19T10:16:01.377Z,16.5
2023-05-19T10:17:01.156Z,16.5
2023-05-19T10:18:01.154Z,16.5
2023-05-19T10:19:01.192Z,16.5
2023-05-19T10:20:01.460Z,16.4
2023-05-19T10:21:01.181Z,16.4
2023-05-19T10:22:01.017Z,16.4
2023-05-19T10:23:01.095Z,16.3
2023-05-19T10:24:01.150Z,16.3
2023-05-19T10:25:02.034Z,16.3
2023-05-19T10:26:01.540Z,16.3
2023-05-19T10:27:01.134Z,16.3
2023-05-19T10:28:01.448Z,16.3
2023-05-19T10:29:01.579Z,16.3
2023-05-19T10:30:02.490Z,16.3
2023-05-19T10:31:01.829Z,16.3
2023-05-19T10:32:03.473Z,16.4
2023-05-19T10:33:01.225Z,16.4
2023-05-19T10:34:01.918Z,16.3
2023-05-19T10:35:01.978Z,16.4
2023-05-19T10:36:01.076Z,16.4
2023-05-19T10:37:05.501Z,16.5
2023-05-19T10:38:01.419Z,16.5
2023-05-19T10:39:01.430Z,16.5
2023-05-19T10:40:01.783Z,16.5
2023-05-19T10:41:01.698Z,16.5
2023-05-19T10:42:07.980Z,16.6
2023-05-19T10:43:01.436Z,16.6
2023-05-19T10:44:01.064Z,16.7
2023-05-19T10:45:01.048Z,16.8
2023-05-19T10:46:01.050Z,16.8
2023-05-19T10:47:11.150Z,16.9
2023-05-19T10:48:01.119Z,17
2023-05-19T10:49:01.065Z,16.9
2023-05-19T10:50:00.743Z,16.9
2023-05-19T10:51:01.078Z,16.8
2023-05-19T10:52:12.868Z,16.8
2023-05-19T10:53:01.037Z,16.8
2023-05-19T10:54:01.091Z,16.8
2023-05-19T10:55:01.130Z,16.9
2023-05-19T10:56:01.118Z,16.9
2023-05-19T10:57:14.954Z,16.9
2023-05-19T10:58:01.139Z,16.9
2023-05-19T10:59:01.526Z,17
2023-05-19T11:00:01.159Z,17
2023-05-19T11:01:02.386Z,17
2023-05-19T11:02:01.189Z,16.9
2023-05-19T11:03:01.106Z,16.9
2023-05-19T11:04:01.802Z,17
2023-05-19T11:05:01.071Z,17
2023-05-19T11:06:01.078Z,17
2023-05-19T11:07:01.077Z,17.1
2023-05-19T11:08:01.472Z,17.1
2023-05-19T11:09:01.112Z,17.1
2023-05-19T11:10:02.197Z,17.1
2023-05-19T11:11:01.618Z,17
2023-05-19T11:12:01.143Z,17
2023-05-19T11:13:00.921Z,16.9
2023-05-19T11:14:01.123Z,16.8
2023-05-19T11:15:01.192Z,16.6
2023-05-19T11:16:01.513Z,16.6
2023-05-19T11:17:02.118Z,16.5
2023-05-19T11:18:01.212Z,16.5
2023-05-19T11:19:01.957Z,16.5
2023-05-19T11:20:02.052Z,16.5
2023-05-19T11:21:01.165Z,16.5
2023-05-19T11:22:01.086Z,16.5
2023-05-19T11:23:01.126Z,16.4
2023-05-19T11:24:01.172Z,16.5
2023-05-19T11:25:02.053Z,16.5
2023-05-19T11:26:01.106Z,16.5
2023-05-19T11:27:01.136Z,16.4
2023-05-19T11:28:01.101Z,16.4
2023-05-19T11:29:01.376Z,16.5
2023-05-19T11:30:02.334Z,16.5
2023-05-19T11:31:02.363Z,16.6
2023-05-19T11:32:01.113Z,16.6
2023-05-19T11:33:01.490Z,16.6
2023-05-19T11:34:01.969Z,16.7
2023-05-19T11:35:01.129Z,16.8
2023-05-19T11:36:01.073Z,16.8
2023-05-19T11:37:01.078Z,16.8
2023-05-19T11:38:01.100Z,16.8
2023-05-19T11:39:01.802Z,16.9
2023-05-19T11:40:01.124Z,17
2023-05-19T11:41:01.098Z,17
2023-05-19T11:42:01.128Z,17
2023-05-19T11:43:01.246Z,16.9
2023-05-19T11:44:01.116Z,16.9
2023-05-19T11:45:01.135Z,16.8
2023-05-19T11:46:01.344Z,16.8
2023-05-19T11:47:02.581Z,16.8
2023-05-19T11:48:03.403Z,16.8
2023-05-19T11:49:01.174Z,16.8
2023-05-19T11:50:01.070Z,16.7
2023-05-19T11:51:01.225Z,16.8
2023-05-19T11:52:01.101Z,16.8
2023-05-19T11:53:01.176Z,16.8
2023-05-19T11:54:01.153Z,16.8
2023-05-19T11:55:01.085Z,16.9
2023-05-19T11:56:01.087Z,16.9
2023-05-19T11:57:02.381Z,16.8
2023-05-19T11:58:05.099Z,16.8
2023-05-19T11:59:02.033Z,16.7
2023-05-19T12:00:01.122Z,16.7
2023-05-19T12:01:01.244Z,16.8
2023-05-19T12:02:01.181Z,16.8
2023-05-19T12:03:00.577Z,16.9
2023-05-19T12:04:00.277Z,17
2023-05-19T12:05:00.460Z,17
2023-05-19T12:06:00.338Z,17
2023-05-19T12:07:00.076Z,17
2023-05-19T12:07:59.684Z,17
2023-05-19T12:09:02.376Z,16.9
2023-05-19T12:10:01.492Z,17
2023-05-19T12:11:01.513Z,17
2023-05-19T12:12:02.733Z,17
2023-05-19T12:13:01.179Z,17
2023-05-19T12:14:01.616Z,16.9
2023-05-19T12:15:01.507Z,16.9
2023-05-19T12:16:01.161Z,16.9
2023-05-19T12:17:01.119Z,17
2023-05-19T12:18:04.107Z,17
2023-05-19T12:19:01.124Z,17
2023-05-19T12:20:01.028Z,17
2023-05-19T12:21:01.052Z,17
2023-05-19T12:22:02.226Z,17
2023-05-19T12:23:06.362Z,17
2023-05-19T12:24:01.182Z,17.1
2023-05-19T12:25:01.071Z,17.1
2023-05-19T12:26:01.084Z,17.1
2023-05-19T12:27:01.079Z,17
2023-05-19T12:28:09.792Z,17
2023-05-19T12:29:01.025Z,16.9
2023-05-19T12:30:01.123Z,16.9
2023-05-19T12:31:01.126Z,16.9
2023-05-19T12:32:01.328Z,16.9
2023-05-19T12:33:11.876Z,17
2023-05-19T12:34:02.082Z,17
2023-05-19T12:35:01.041Z,17
2023-05-19T12:36:01.030Z,17.1
2023-05-19T12:37:01.050Z,17
2023-05-19T12:38:15.562Z,17
2023-05-19T12:39:01.188Z,17
2023-05-19T12:40:01.364Z,17
2023-05-19T12:41:01.891Z,17
2023-05-19T12:42:01.289Z,17.1
2023-05-19T12:43:01.167Z,17
2023-05-19T12:44:01.094Z,17
2023-05-19T12:45:03.154Z,16.9
2023-05-19T12:46:01.348Z,16.9
2023-05-19T12:47:01.931Z,17
2023-05-19T12:48:01.151Z,17
2023-05-19T12:49:01.126Z,17
2023-05-19T12:50:00.991Z,17
2023-05-19T12:51:01.428Z,17
2023-05-19T12:52:03.050Z,17
2023-05-19T12:53:01.059Z,17
2023-05-19T12:54:01.033Z,17
2023-05-19T12:55:01.105Z,16.9
2023-05-19T12:56:01.472Z,16.9
2023-05-19T12:57:01.072Z,16.8
2023-05-19T12:58:01.634Z,16.8
2023-05-19T12:59:01.441Z,16.8
2023-05-19T13:00:01.906Z,16.8
2023-05-19T13:01:01.208Z,16.8
2023-05-19T13:02:01.408Z,16.9
2023-05-19T13:03:03.180Z,17
2023-05-19T13:04:04.591Z,17
2023-05-19T13:05:01.605Z,17
2023-05-19T13:06:01.145Z,17.1
2023-05-19T13:07:01.870Z,17.1
2023-05-19T13:08:01.750Z,17
2023-05-19T13:09:01.707Z,17
2023-05-19T13:10:01.188Z,17
2023-05-19T13:11:01.958Z,17
2023-05-19T13:12:01.422Z,17
2023-05-19T13:13:00.712Z,16.9
2023-05-19T13:14:00.607Z,16.8
2023-05-19T13:15:00.358Z,16.8
2023-05-19T13:15:59.966Z,16.8
2023-05-19T13:16:59.620Z,16.8
2023-05-19T13:18:01.778Z,16.8
2023-05-19T13:19:01.778Z,16.8
2023-05-19T13:20:01.747Z,16.8
2023-05-19T13:21:01.722Z,16.7
2023-05-19T13:22:01.468Z,16.6
2023-05-19T13:23:01.797Z,16.6
2023-05-19T13:24:01.048Z,16.6
2023-05-19T13:25:01.061Z,16.6
2023-05-19T13:26:01.966Z,16.6
2023-05-19T13:27:02.598Z,16.7
2023-05-19T13:28:01.052Z,16.7
2023-05-19T13:29:01.634Z,16.7
2023-05-19T13:30:01.283Z,16.7
2023-05-19T13:31:01.096Z,16.8
2023-05-19T13:32:01.700Z,16.8